sensor_id;sensor_type;location;lat;lon;timestamp;temperature;humidity
9425;DHT22;17139;52.140;11.636;2024-01-30T00:01:56;1.80;63.10
9425;DHT22;17139;52.140;11.636;2024-01-30T00:04:23;2.10;63.40
9425;DHT22;17139;52.140;11.636;2024-01-30T00:06:51;2.00;63.30
9425;DHT22;17139;52.140;11.636;2024-01-30T00:09:21;2.00;62.80
9425;DHT22;17139;52.140;11.636;2024-01-30T00:11:48;1.90;63.00
9425;DHT22;17139;52.140;11.636;2024-01-30T00:14:15;1.80;63.00
9425;DHT22;17139;52.140;11.636;2024-01-30T00:16:42;1.80;63.10
9425;DHT22;17139;52.140;11.636;2024-01-30T00:19:10;1.80;63.20
9425;DHT22;17139;52.140;11.636;2024-01-30T00:21:37;1.80;63.30
9425;DHT22;17139;52.140;11.636;2024-01-30T00:24:05;1.80;63.40
9425;DHT22;17139;52.140;11.636;2024-01-30T00:26:33;1.70;63.30
9425;DHT22;17139;52.140;11.636;2024-01-30T00:29:01;1.70;63.30
9425;DHT22;17139;52.140;11.636;2024-01-30T00:31:28;1.70;63.30
9425;DHT22;17139;52.140;11.636;2024-01-30T00:33:55;1.70;63.30
9425;DHT22;17139;52.140;11.636;2024-01-30T00:36:23;1.70;63.30
9425;DHT22;17139;52.140;11.636;2024-01-30T00:38:50;1.70;63.30
9425;DHT22;17139;52.140;11.636;2024-01-30T00:41:17;2.50;62.50
9425;DHT22;17139;52.140;11.636;2024-01-30T00:43:47;2.40;61.70
9425;DHT22;17139;52.140;11.636;2024-01-30T00:46:14;2.40;62.20
9425;DHT22;17139;52.140;11.636;2024-01-30T00:48:41;2.20;61.80
9425;DHT22;17139;52.140;11.636;2024-01-30T00:51:08;2.10;62.40
9425;DHT22;17139;52.140;11.636;2024-01-30T00:53:35;1.90;62.60
9425;DHT22;17139;52.140;11.636;2024-01-30T00:56:03;1.90;62.90
9425;DHT22;17139;52.140;11.636;2024-01-30T00:58:30;1.80;63.00
9425;DHT22;17139;52.140;11.636;2024-01-30T01:00:59;1.70;63.20
9425;DHT22;17139;52.140;11.636;2024-01-30T01:03:26;1.70;63.40
9425;DHT22;17139;52.140;11.636;2024-01-30T01:05:53;1.70;63.40
9425;DHT22;17139;52.140;11.636;2024-01-30T01:08:21;1.60;63.30
9425;DHT22;17139;52.140;11.636;2024-01-30T01:10:48;1.60;63.30
9425;DHT22;17139;52.140;11.636;2024-01-30T01:13:15;1.60;63.30
9425;DHT22;17139;52.140;11.636;2024-01-30T01:15:43;1.60;63.30
9425;DHT22;17139;52.140;11.636;2024-01-30T01:18:12;1.60;63.20
9425;DHT22;17139;52.140;11.636;2024-01-30T01:20:39;1.50;63.20
9425;DHT22;17139;52.140;11.636;2024-01-30T01:23:06;1.90;63.50
9425;DHT22;17139;52.140;11.636;2024-01-30T01:25:33;1.80;62.50
9425;DHT22;17139;52.140;11.636;2024-01-30T01:28:01;1.70;62.60
9425;DHT22;17139;52.140;11.636;2024-01-30T01:30:29;1.70;62.90
9425;DHT22;17139;52.140;11.636;2024-01-30T01:32:56;1.70;63.10
9425;DHT22;17139;52.140;11.636;2024-01-30T01:35:28;1.60;63.10
9425;DHT22;17139;52.140;11.636;2024-01-30T01:37:55;1.60;63.20
9425;DHT22;17139;52.140;11.636;2024-01-30T01:40:24;1.60;63.20
9425;DHT22;17139;52.140;11.636;2024-01-30T01:42:52;1.50;63.20
9425;DHT22;17139;52.140;11.636;2024-01-30T01:45:20;1.50;63.20
9425;DHT22;17139;52.140;11.636;2024-01-30T01:47:49;1.50;63.20
9425;DHT22;17139;52.140;11.636;2024-01-30T01:50:18;1.50;63.20
9425;DHT22;17139;52.140;11.636;2024-01-30T01:52:48;1.50;63.90
9425;DHT22;17139;52.140;11.636;2024-01-30T01:55:16;1.50;63.20
9425;DHT22;17139;52.140;11.636;2024-01-30T01:57:47;1.50;63.20
9425;DHT22;17139;52.140;11.636;2024-01-30T02:00:15;1.40;63.10
9425;DHT22;17139;52.140;11.636;2024-01-30T02:02:44;1.40;63.10
9425;DHT22;17139;52.140;11.636;2024-01-30T02:05:12;1.40;63.10
9425;DHT22;17139;52.140;11.636;2024-01-30T02:07:39;1.40;63.20
9425;DHT22;17139;52.140;11.636;2024-01-30T02:10:09;1.40;63.20
9425;DHT22;17139;52.140;11.636;2024-01-30T02:12:37;1.30;63.10
9425;DHT22;17139;52.140;11.636;2024-01-30T02:15:05;1.30;63.10
9425;DHT22;17139;52.140;11.636;2024-01-30T02:17:33;1.30;63.20
9425;DHT22;17139;52.140;11.636;2024-01-30T02:20:01;1.40;63.30
9425;DHT22;17139;52.140;11.636;2024-01-30T02:22:31;1.30;63.20
9425;DHT22;17139;52.140;11.636;2024-01-30T02:24:59;1.40;63.30
9425;DHT22;17139;52.140;11.636;2024-01-30T02:27:26;1.40;63.30
9425;DHT22;17139;52.140;11.636;2024-01-30T02:29:53;1.40;63.30
9425;DHT22;17139;52.140;11.636;2024-01-30T02:32:21;1.40;63.50
9425;DHT22;17139;52.140;11.636;2024-01-30T02:34:48;1.40;63.10
9425;DHT22;17139;52.140;11.636;2024-01-30T02:37:16;1.40;63.10
9425;DHT22;17139;52.140;11.636;2024-01-30T02:39:44;2.00;63.50
9425;DHT22;17139;52.140;11.636;2024-01-30T02:42:12;1.90;62.30
9425;DHT22;17139;52.140;11.636;2024-01-30T02:44:39;1.70;62.60
9425;DHT22;17139;52.140;11.636;2024-01-30T02:47:06;1.60;62.80
9425;DHT22;17139;52.140;11.636;2024-01-30T02:49:33;1.50;63.10
9425;DHT22;17139;52.140;11.636;2024-01-30T02:52:00;1.40;63.10
9425;DHT22;17139;52.140;11.636;2024-01-30T02:54:27;1.30;63.00
9425;DHT22;17139;52.140;11.636;2024-01-30T02:56:57;1.30;63.20
9425;DHT22;17139;52.140;11.636;2024-01-30T02:59:25;1.30;63.40
9425;DHT22;17139;52.140;11.636;2024-01-30T03:01:52;1.20;63.30
9425;DHT22;17139;52.140;11.636;2024-01-30T03:04:19;1.20;63.30
9425;DHT22;17139;52.140;11.636;2024-01-30T03:06:47;1.20;63.40
9425;DHT22;17139;52.140;11.636;2024-01-30T03:09:16;1.20;63.40
9425;DHT22;17139;52.140;11.636;2024-01-30T03:11:43;1.90;64.30
9425;DHT22;17139;52.140;11.636;2024-01-30T03:14:11;1.80;62.40
9425;DHT22;17139;52.140;11.636;2024-01-30T03:16:38;1.70;62.90
9425;DHT22;17139;52.140;11.636;2024-01-30T03:19:06;1.50;62.60
9425;DHT22;17139;52.140;11.636;2024-01-30T03:21:35;1.40;63.10
9425;DHT22;17139;52.140;11.636;2024-01-30T03:24:02;1.30;63.00
9425;DHT22;17139;52.140;11.636;2024-01-30T03:26:29;1.20;63.20
9425;DHT22;17139;52.140;11.636;2024-01-30T03:28:57;1.20;63.40
9425;DHT22;17139;52.140;11.636;2024-01-30T03:31:25;1.20;63.40
9425;DHT22;17139;52.140;11.636;2024-01-30T03:33:53;1.20;63.50
9425;DHT22;17139;52.140;11.636;2024-01-30T03:36:20;1.10;63.50
9425;DHT22;17139;52.140;11.636;2024-01-30T03:38:47;1.00;63.50
9425;DHT22;17139;52.140;11.636;2024-01-30T03:41:14;1.00;63.60
9425;DHT22;17139;52.140;11.636;2024-01-30T03:43:42;1.00;63.60
9425;DHT22;17139;52.140;11.636;2024-01-30T03:46:09;1.00;63.50
9425;DHT22;17139;52.140;11.636;2024-01-30T03:48:40;1.20;63.90
9425;DHT22;17139;52.140;11.636;2024-01-30T03:51:07;1.30;63.00
9425;DHT22;17139;52.140;11.636;2024-01-30T03:53:35;1.20;62.90
9425;DHT22;17139;52.140;11.636;2024-01-30T03:56:02;1.70;63.30
9425;DHT22;17139;52.140;11.636;2024-01-30T03:58:30;1.60;62.30
9425;DHT22;17139;52.140;11.636;2024-01-30T04:00:57;1.40;62.60
9425;DHT22;17139;52.140;11.636;2024-01-30T04:03:24;1.20;62.90
9425;DHT22;17139;52.140;11.636;2024-01-30T04:05:53;1.20;63.20
9425;DHT22;17139;52.140;11.636;2024-01-30T04:08:21;1.20;63.40
9425;DHT22;17139;52.140;11.636;2024-01-30T04:10:48;1.10;63.50
9425;DHT22;17139;52.140;11.636;2024-01-30T04:13:15;1.10;63.50
9425;DHT22;17139;52.140;11.636;2024-01-30T04:15:42;1.10;63.60
9425;DHT22;17139;52.140;11.636;2024-01-30T04:18:10;1.10;63.50
9425;DHT22;17139;52.140;11.636;2024-01-30T04:20:37;1.10;63.40
9425;DHT22;17139;52.140;11.636;2024-01-30T04:23:06;1.00;63.30
9425;DHT22;17139;52.140;11.636;2024-01-30T04:25:33;1.10;63.40
9425;DHT22;17139;52.140;11.636;2024-01-30T04:28:00;1.10;63.40
9425;DHT22;17139;52.140;11.636;2024-01-30T04:30:27;1.10;63.40
9425;DHT22;17139;52.140;11.636;2024-01-30T04:32:54;1.10;63.40
9425;DHT22;17139;52.140;11.636;2024-01-30T04:35:21;1.10;63.40
9425;DHT22;17139;52.140;11.636;2024-01-30T04:37:52;1.10;63.20
9425;DHT22;17139;52.140;11.636;2024-01-30T04:40:21;1.10;63.20
9425;DHT22;17139;52.140;11.636;2024-01-30T04:42:49;1.10;63.20
9425;DHT22;17139;52.140;11.636;2024-01-30T04:45:16;1.10;63.20
9425;DHT22;17139;52.140;11.636;2024-01-30T04:47:43;1.10;63.20
9425;DHT22;17139;52.140;11.636;2024-01-30T04:50:11;1.20;63.30
9425;DHT22;17139;52.140;11.636;2024-01-30T04:52:39;1.20;63.20
9425;DHT22;17139;52.140;11.636;2024-01-30T04:55:07;1.20;63.20
9425;DHT22;17139;52.140;11.636;2024-01-30T04:57:35;1.20;63.20
9425;DHT22;17139;52.140;11.636;2024-01-30T05:00:03;1.20;63.20
9425;DHT22;17139;52.140;11.636;2024-01-30T05:02:31;1.20;63.10
9425;DHT22;17139;52.140;11.636;2024-01-30T05:04:58;1.20;63.00
9425;DHT22;17139;52.140;11.636;2024-01-30T05:07:25;1.20;63.10
9425;DHT22;17139;52.140;11.636;2024-01-30T05:09:52;1.20;63.10
9425;DHT22;17139;52.140;11.636;2024-01-30T05:12:20;1.20;63.00
9425;DHT22;17139;52.140;11.636;2024-01-30T05:14:48;1.20;63.00
9425;DHT22;17139;52.140;11.636;2024-01-30T05:17:15;1.30;63.00
9425;DHT22;17139;52.140;11.636;2024-01-30T05:19:43;1.20;63.00
9425;DHT22;17139;52.140;11.636;2024-01-30T05:22:10;1.70;63.70
9425;DHT22;17139;52.140;11.636;2024-01-30T05:24:41;1.70;62.80
9425;DHT22;17139;52.140;11.636;2024-01-30T05:27:09;1.50;62.80
9425;DHT22;17139;52.140;11.636;2024-01-30T05:29:36;1.40;63.10
9425;DHT22;17139;52.140;11.636;2024-01-30T05:32:05;1.40;63.10
9425;DHT22;17139;52.140;11.636;2024-01-30T05:34:32;1.40;63.10
9425;DHT22;17139;52.140;11.636;2024-01-30T05:36:59;1.40;63.10
9425;DHT22;17139;52.140;11.636;2024-01-30T05:39:27;1.40;63.10
9425;DHT22;17139;52.140;11.636;2024-01-30T05:41:54;1.40;63.10
9425;DHT22;17139;52.140;11.636;2024-01-30T05:44:21;1.40;63.20
9425;DHT22;17139;52.140;11.636;2024-01-30T05:46:48;1.80;64.00
9425;DHT22;17139;52.140;11.636;2024-01-30T05:49:17;1.80;62.90
9425;DHT22;17139;52.140;11.636;2024-01-30T05:51:44;1.70;63.10
9425;DHT22;17139;52.140;11.636;2024-01-30T05:54:11;2.20;63.60
9425;DHT22;17139;52.140;11.636;2024-01-30T05:56:38;2.10;62.60
9425;DHT22;17139;52.140;11.636;2024-01-30T05:59:05;1.90;62.80
9425;DHT22;17139;52.140;11.636;2024-01-30T06:01:33;1.80;63.00
9425;DHT22;17139;52.140;11.636;2024-01-30T06:04:00;1.70;63.30
9425;DHT22;17139;52.140;11.636;2024-01-30T06:06:29;1.60;63.30
9425;DHT22;17139;52.140;11.636;2024-01-30T06:08:56;1.60;63.30
9425;DHT22;17139;52.140;11.636;2024-01-30T06:11:24;1.50;63.40
9425;DHT22;17139;52.140;11.636;2024-01-30T06:13:51;1.50;63.50
9425;DHT22;17139;52.140;11.636;2024-01-30T06:16:18;1.50;63.50
9425;DHT22;17139;52.140;11.636;2024-01-30T06:18:46;1.50;63.60
9425;DHT22;17139;52.140;11.636;2024-01-30T06:21:14;1.40;63.60
9425;DHT22;17139;52.140;11.636;2024-01-30T06:23:43;1.50;63.60
9425;DHT22;17139;52.140;11.636;2024-01-30T06:26:10;1.40;63.60
9425;DHT22;17139;52.140;11.636;2024-01-30T06:28:37;1.40;63.60
9425;DHT22;17139;52.140;11.636;2024-01-30T06:31:04;2.00;64.10
9425;DHT22;17139;52.140;11.636;2024-01-30T06:33:31;1.90;62.90
9425;DHT22;17139;52.140;11.636;2024-01-30T06:35:59;1.80;63.20
9425;DHT22;17139;52.140;11.636;2024-01-30T06:38:26;1.70;63.40
9425;DHT22;17139;52.140;11.636;2024-01-30T06:40:54;1.60;63.30
9425;DHT22;17139;52.140;11.636;2024-01-30T06:43:22;1.50;63.40
9425;DHT22;17139;52.140;11.636;2024-01-30T06:45:49;1.50;63.60
9425;DHT22;17139;52.140;11.636;2024-01-30T06:48:17;1.50;64.40
9425;DHT22;17139;52.140;11.636;2024-01-30T06:50:44;1.40;63.60
9425;DHT22;17139;52.140;11.636;2024-01-30T06:53:13;1.40;63.70
9425;DHT22;17139;52.140;11.636;2024-01-30T06:55:41;1.40;63.70
9425;DHT22;17139;52.140;11.636;2024-01-30T06:58:09;1.40;63.80
9425;DHT22;17139;52.140;11.636;2024-01-30T07:00:37;1.40;63.80
9425;DHT22;17139;52.140;11.636;2024-01-30T07:03:04;2.10;63.80
9425;DHT22;17139;52.140;11.636;2024-01-30T07:05:32;2.00;62.80
9425;DHT22;17139;52.140;11.636;2024-01-30T07:07:59;2.00;63.60
9425;DHT22;17139;52.140;11.636;2024-01-30T07:10:27;1.90;63.20
9425;DHT22;17139;52.140;11.636;2024-01-30T07:12:54;1.70;63.40
9425;DHT22;17139;52.140;11.636;2024-01-30T07:15:22;1.70;63.40
9425;DHT22;17139;52.140;11.636;2024-01-30T07:17:49;1.60;63.50
9425;DHT22;17139;52.140;11.636;2024-01-30T07:20:17;1.60;63.70
9425;DHT22;17139;52.140;11.636;2024-01-30T07:22:46;1.50;63.70
9425;DHT22;17139;52.140;11.636;2024-01-30T07:25:13;1.50;63.70
9425;DHT22;17139;52.140;11.636;2024-01-30T07:27:41;1.50;63.80
9425;DHT22;17139;52.140;11.636;2024-01-30T07:30:08;1.50;63.80
9425;DHT22;17139;52.140;11.636;2024-01-30T07:32:37;1.60;64.00
9425;DHT22;17139;52.140;11.636;2024-01-30T07:35:05;1.60;64.00
9425;DHT22;17139;52.140;11.636;2024-01-30T07:37:32;1.60;63.90
9425;DHT22;17139;52.140;11.636;2024-01-30T07:39:59;2.00;64.50
9425;DHT22;17139;52.140;11.636;2024-01-30T07:42:52;2.00;63.50
9425;DHT22;17139;52.140;11.636;2024-01-30T07:45:33;2.00;63.70
9425;DHT22;17139;52.140;11.636;2024-01-30T07:48:00;1.90;63.60
9425;DHT22;17139;52.140;11.636;2024-01-30T07:50:27;1.90;63.60
9425;DHT22;17139;52.140;11.636;2024-01-30T07:52:55;1.90;63.60
9425;DHT22;17139;52.140;11.636;2024-01-30T07:55:23;1.90;63.70
9425;DHT22;17139;52.140;11.636;2024-01-30T07:57:53;2.00;63.70
9425;DHT22;17139;52.140;11.636;2024-01-30T08:00:21;2.70;64.30
9425;DHT22;17139;52.140;11.636;2024-01-30T08:02:50;2.60;63.10
9425;DHT22;17139;52.140;11.636;2024-01-30T08:05:19;2.40;63.20
9425;DHT22;17139;52.140;11.636;2024-01-30T08:07:48;2.40;63.40
9425;DHT22;17139;52.140;11.636;2024-01-30T08:10:15;2.30;63.50
9425;DHT22;17139;52.140;11.636;2024-01-30T08:12:44;2.30;63.60
9425;DHT22;17139;52.140;11.636;2024-01-30T08:15:12;2.30;63.70
9425;DHT22;17139;52.140;11.636;2024-01-30T08:17:39;2.80;64.20
9425;DHT22;17139;52.140;11.636;2024-01-30T08:20:09;2.70;63.00
9425;DHT22;17139;52.140;11.636;2024-01-30T08:22:38;2.70;63.30
9425;DHT22;17139;52.140;11.636;2024-01-30T08:25:07;2.60;63.40
9425;DHT22;17139;52.140;11.636;2024-01-30T08:27:35;2.60;63.50
9425;DHT22;17139;52.140;11.636;2024-01-30T08:30:05;2.60;63.60
9425;DHT22;17139;52.140;11.636;2024-01-30T08:32:33;2.60;63.60
9425;DHT22;17139;52.140;11.636;2024-01-30T08:35:00;2.60;63.60
9425;DHT22;17139;52.140;11.636;2024-01-30T08:37:30;2.70;63.60
9425;DHT22;17139;52.140;11.636;2024-01-30T08:39:58;2.70;63.60
9425;DHT22;17139;52.140;11.636;2024-01-30T08:42:25;2.80;63.50
9425;DHT22;17139;52.140;11.636;2024-01-30T08:44:52;2.80;63.50
9425;DHT22;17139;52.140;11.636;2024-01-30T08:47:20;2.90;63.50
9425;DHT22;17139;52.140;11.636;2024-01-30T08:49:47;3.00;63.40
9425;DHT22;17139;52.140;11.636;2024-01-30T08:52:14;3.00;63.30
9425;DHT22;17139;52.140;11.636;2024-01-30T08:54:43;3.20;63.50
9425;DHT22;17139;52.140;11.636;2024-01-30T08:57:11;3.30;63.00
9425;DHT22;17139;52.140;11.636;2024-01-30T08:59:38;3.30;62.90
9425;DHT22;17139;52.140;11.636;2024-01-30T09:02:06;3.40;63.00
9425;DHT22;17139;52.140;11.636;2024-01-30T09:04:35;3.50;63.00
9425;DHT22;17139;52.140;11.636;2024-01-30T09:07:03;3.50;62.90
9425;DHT22;17139;52.140;11.636;2024-01-30T09:09:31;3.60;63.60
9425;DHT22;17139;52.140;11.636;2024-01-30T09:12:00;3.70;62.90
9425;DHT22;17139;52.140;11.636;2024-01-30T09:14:32;3.70;62.80
9425;DHT22;17139;52.140;11.636;2024-01-30T09:16:59;3.80;62.90
9425;DHT22;17139;52.140;11.636;2024-01-30T09:19:27;3.90;62.80
9425;DHT22;17139;52.140;11.636;2024-01-30T09:21:54;3.90;62.60
9425;DHT22;17139;52.140;11.636;2024-01-30T09:24:21;4.10;62.70
9425;DHT22;17139;52.140;11.636;2024-01-30T09:26:49;4.10;62.60
9425;DHT22;17139;52.140;11.636;2024-01-30T09:29:18;4.20;62.60
9425;DHT22;17139;52.140;11.636;2024-01-30T09:31:45;5.00;61.50
9425;DHT22;17139;52.140;11.636;2024-01-30T09:34:13;4.90;61.30
9425;DHT22;17139;52.140;11.636;2024-01-30T09:36:40;4.80;61.50
9425;DHT22;17139;52.140;11.636;2024-01-30T09:39:08;5.10;62.30
9425;DHT22;17139;52.140;11.636;2024-01-30T09:41:41;5.10;61.30
9425;DHT22;17139;52.140;11.636;2024-01-30T09:44:12;5.10;61.60
9425;DHT22;17139;52.140;11.636;2024-01-30T09:46:40;5.00;61.70
9425;DHT22;17139;52.140;11.636;2024-01-30T09:49:09;5.10;62.00
9425;DHT22;17139;52.140;11.636;2024-01-30T09:51:37;5.10;62.10
9425;DHT22;17139;52.140;11.636;2024-01-30T09:54:04;5.20;62.10
9425;DHT22;17139;52.140;11.636;2024-01-30T09:56:32;5.20;62.10
9425;DHT22;17139;52.140;11.636;2024-01-30T09:58:59;5.30;62.10
9425;DHT22;17139;52.140;11.636;2024-01-30T10:01:26;5.30;61.90
9425;DHT22;17139;52.140;11.636;2024-01-30T10:03:55;5.40;61.90
9425;DHT22;17139;52.140;11.636;2024-01-30T10:06:24;5.40;61.90
9425;DHT22;17139;52.140;11.636;2024-01-30T10:08:52;5.50;62.00
9425;DHT22;17139;52.140;11.636;2024-01-30T10:11:19;6.40;59.30
9425;DHT22;17139;52.140;11.636;2024-01-30T10:13:46;6.20;60.30
9425;DHT22;17139;52.140;11.636;2024-01-30T10:16:14;6.40;59.40
9425;DHT22;17139;52.140;11.636;2024-01-30T10:18:42;6.30;60.70
9425;DHT22;17139;52.140;11.636;2024-01-30T10:21:11;6.20;61.00
9425;DHT22;17139;52.140;11.636;2024-01-30T10:23:38;6.20;61.40
9425;DHT22;17139;52.140;11.636;2024-01-30T10:26:07;6.10;61.40
9425;DHT22;17139;52.140;11.636;2024-01-30T10:28:36;6.10;61.60
9425;DHT22;17139;52.140;11.636;2024-01-30T10:31:03;6.20;61.80
9425;DHT22;17139;52.140;11.636;2024-01-30T10:33:32;6.20;61.80
9425;DHT22;17139;52.140;11.636;2024-01-30T10:36:01;6.20;61.90
9425;DHT22;17139;52.140;11.636;2024-01-30T10:38:31;6.20;61.80
9425;DHT22;17139;52.140;11.636;2024-01-30T10:40:59;6.30;61.90
9425;DHT22;17139;52.140;11.636;2024-01-30T10:43:32;6.30;61.90
9425;DHT22;17139;52.140;11.636;2024-01-30T10:46:06;6.30;61.80
9425;DHT22;17139;52.140;11.636;2024-01-30T10:48:37;6.40;60.80
9425;DHT22;17139;52.140;11.636;2024-01-30T10:51:11;6.40;60.80
9425;DHT22;17139;52.140;11.636;2024-01-30T10:53:41;6.60;60.60
9425;DHT22;17139;52.140;11.636;2024-01-30T10:56:11;6.90;60.00
9425;DHT22;17139;52.140;11.636;2024-01-30T10:58:39;6.80;60.00
9425;DHT22;17139;52.140;11.636;2024-01-30T11:01:06;6.80;60.40
9425;DHT22;17139;52.140;11.636;2024-01-30T11:03:34;6.80;60.50
9425;DHT22;17139;52.140;11.636;2024-01-30T11:06:03;6.80;60.50
9425;DHT22;17139;52.140;11.636;2024-01-30T11:08:32;6.80;60.60
9425;DHT22;17139;52.140;11.636;2024-01-30T11:11:00;6.80;60.70
9425;DHT22;17139;52.140;11.636;2024-01-30T11:13:29;6.80;60.70
9425;DHT22;17139;52.140;11.636;2024-01-30T11:16:00;6.80;60.90
9425;DHT22;17139;52.140;11.636;2024-01-30T11:18:29;6.80;60.90
9425;DHT22;17139;52.140;11.636;2024-01-30T11:20:57;7.40;59.30
9425;DHT22;17139;52.140;11.636;2024-01-30T11:23:26;7.30;59.70
9425;DHT22;17139;52.140;11.636;2024-01-30T11:25:53;7.10;60.20
9425;DHT22;17139;52.140;11.636;2024-01-30T11:28:22;7.70;58.70
9425;DHT22;17139;52.140;11.636;2024-01-30T11:30:50;7.40;59.20
9425;DHT22;17139;52.140;11.636;2024-01-30T11:33:28;7.20;59.90
9425;DHT22;17139;52.140;11.636;2024-01-30T11:35:58;7.10;60.40
9425;DHT22;17139;52.140;11.636;2024-01-30T11:38:26;7.00;60.70
9425;DHT22;17139;52.140;11.636;2024-01-30T11:40:55;6.90;61.00
9425;DHT22;17139;52.140;11.636;2024-01-30T11:43:24;6.90;61.20
9425;DHT22;17139;52.140;11.636;2024-01-30T11:45:51;6.80;61.20
9425;DHT22;17139;52.140;11.636;2024-01-30T11:48:19;6.80;61.30
9425;DHT22;17139;52.140;11.636;2024-01-30T11:50:46;6.90;61.40
9425;DHT22;17139;52.140;11.636;2024-01-30T11:53:14;6.80;61.30
9425;DHT22;17139;52.140;11.636;2024-01-30T11:55:41;7.50;59.90
9425;DHT22;17139;52.140;11.636;2024-01-30T11:58:08;7.40;60.00
9425;DHT22;17139;52.140;11.636;2024-01-30T12:00:37;7.60;59.70
9425;DHT22;17139;52.140;11.636;2024-01-30T12:03:05;7.60;59.90
9425;DHT22;17139;52.140;11.636;2024-01-30T12:05:32;7.40;60.30
9425;DHT22;17139;52.140;11.636;2024-01-30T12:08:00;7.40;60.60
9425;DHT22;17139;52.140;11.636;2024-01-30T12:10:28;7.40;60.70
9425;DHT22;17139;52.140;11.636;2024-01-30T12:12:55;7.50;61.00
9425;DHT22;17139;52.140;11.636;2024-01-30T12:15:23;7.40;60.90
9425;DHT22;17139;52.140;11.636;2024-01-30T12:17:52;7.50;61.10
9425;DHT22;17139;52.140;11.636;2024-01-30T12:20:30;7.50;61.10
9425;DHT22;17139;52.140;11.636;2024-01-30T12:22:57;7.60;61.10
9425;DHT22;17139;52.140;11.636;2024-01-30T12:25:25;7.60;61.00
9425;DHT22;17139;52.140;11.636;2024-01-30T12:27:52;7.80;60.80
9425;DHT22;17139;52.140;11.636;2024-01-30T12:30:21;7.80;60.70
9425;DHT22;17139;52.140;11.636;2024-01-30T12:32:50;7.90;60.80
9425;DHT22;17139;52.140;11.636;2024-01-30T12:35:20;8.60;59.60
9425;DHT22;17139;52.140;11.636;2024-01-30T12:37:48;8.40;59.50
9425;DHT22;17139;52.140;11.636;2024-01-30T12:40:16;8.30;59.90
9425;DHT22;17139;52.140;11.636;2024-01-30T12:42:46;8.30;60.30
9425;DHT22;17139;52.140;11.636;2024-01-30T12:45:15;8.30;60.50
9425;DHT22;17139;52.140;11.636;2024-01-30T12:47:45;8.30;60.70
9425;DHT22;17139;52.140;11.636;2024-01-30T12:50:13;8.30;60.80
9425;DHT22;17139;52.140;11.636;2024-01-30T12:52:43;8.30;60.80
9425;DHT22;17139;52.140;11.636;2024-01-30T12:55:10;8.40;60.90
9425;DHT22;17139;52.140;11.636;2024-01-30T12:57:38;8.40;60.90
9425;DHT22;17139;52.140;11.636;2024-01-30T13:00:07;8.50;61.00
9425;DHT22;17139;52.140;11.636;2024-01-30T13:02:35;8.50;61.00
9425;DHT22;17139;52.140;11.636;2024-01-30T13:05:03;8.50;61.00
9425;DHT22;17139;52.140;11.636;2024-01-30T13:07:30;8.50;61.00
9425;DHT22;17139;52.140;11.636;2024-01-30T13:09:59;9.00;59.80
9425;DHT22;17139;52.140;11.636;2024-01-30T13:12:29;9.00;60.10
9425;DHT22;17139;52.140;11.636;2024-01-30T13:14:58;8.80;60.40
9425;DHT22;17139;52.140;11.636;2024-01-30T13:17:27;8.80;60.70
9425;DHT22;17139;52.140;11.636;2024-01-30T13:19:54;8.70;60.90
9425;DHT22;17139;52.140;11.636;2024-01-30T13:22:21;8.70;61.10
9425;DHT22;17139;52.140;11.636;2024-01-30T13:24:48;8.70;61.10
9425;DHT22;17139;52.140;11.636;2024-01-30T13:27:17;8.80;61.20
9425;DHT22;17139;52.140;11.636;2024-01-30T13:29:44;8.80;61.20
9425;DHT22;17139;52.140;11.636;2024-01-30T13:32:12;8.90;61.30
9425;DHT22;17139;52.140;11.636;2024-01-30T13:34:39;8.90;61.30
9425;DHT22;17139;52.140;11.636;2024-01-30T13:37:07;8.90;61.20
9425;DHT22;17139;52.140;11.636;2024-01-30T13:39:34;9.10;60.50
9425;DHT22;17139;52.140;11.636;2024-01-30T13:42:01;9.10;60.60
9425;DHT22;17139;52.140;11.636;2024-01-30T13:44:30;9.10;60.90
9425;DHT22;17139;52.140;11.636;2024-01-30T13:46:57;9.90;58.60
9425;DHT22;17139;52.140;11.636;2024-01-30T13:49:24;9.70;59.40
9425;DHT22;17139;52.140;11.636;2024-01-30T13:51:51;9.50;59.90
9425;DHT22;17139;52.140;11.636;2024-01-30T13:54:19;9.40;60.30
9425;DHT22;17139;52.140;11.636;2024-01-30T13:56:46;9.30;60.60
9425;DHT22;17139;52.140;11.636;2024-01-30T13:59:13;9.30;60.90
9425;DHT22;17139;52.140;11.636;2024-01-30T14:01:42;9.20;61.00
9425;DHT22;17139;52.140;11.636;2024-01-30T14:04:09;9.10;61.20
9425;DHT22;17139;52.140;11.636;2024-01-30T14:06:37;9.00;61.30
9425;DHT22;17139;52.140;11.636;2024-01-30T14:09:04;9.00;61.50
9425;DHT22;17139;52.140;11.636;2024-01-30T14:11:31;8.90;61.60
9425;DHT22;17139;52.140;11.636;2024-01-30T14:13:59;8.90;61.80
9425;DHT22;17139;52.140;11.636;2024-01-30T14:16:26;9.10;61.10
9425;DHT22;17139;52.140;11.636;2024-01-30T14:18:55;9.10;61.20
9425;DHT22;17139;52.140;11.636;2024-01-30T14:21:23;9.00;61.50
9425;DHT22;17139;52.140;11.636;2024-01-30T14:23:50;9.50;60.10
9425;DHT22;17139;52.140;11.636;2024-01-30T14:26:17;9.30;60.40
9425;DHT22;17139;52.140;11.636;2024-01-30T14:28:45;9.10;61.00
9425;DHT22;17139;52.140;11.636;2024-01-30T14:31:12;9.70;59.80
9425;DHT22;17139;52.140;11.636;2024-01-30T14:33:40;10.10;58.60
9425;DHT22;17139;52.140;11.636;2024-01-30T14:36:09;9.70;59.50
9425;DHT22;17139;52.140;11.636;2024-01-30T14:38:36;9.30;60.30
9425;DHT22;17139;52.140;11.636;2024-01-30T14:41:04;9.10;61.00
9425;DHT22;17139;52.140;11.636;2024-01-30T14:43:31;9.00;61.50
9425;DHT22;17139;52.140;11.636;2024-01-30T14:45:59;8.90;61.80
9425;DHT22;17139;52.140;11.636;2024-01-30T14:48:26;9.10;61.40
9425;DHT22;17139;52.140;11.636;2024-01-30T14:50:53;9.00;61.30
9425;DHT22;17139;52.140;11.636;2024-01-30T14:53:22;8.80;61.70
9425;DHT22;17139;52.140;11.636;2024-01-30T14:55:49;8.80;62.10
9425;DHT22;17139;52.140;11.636;2024-01-30T14:58:16;8.70;62.30
9425;DHT22;17139;52.140;11.636;2024-01-30T15:00:43;8.60;62.30
9425;DHT22;17139;52.140;11.636;2024-01-30T15:03:11;8.60;62.30
9425;DHT22;17139;52.140;11.636;2024-01-30T15:05:38;8.90;61.80
9425;DHT22;17139;52.140;11.636;2024-01-30T15:08:05;8.90;61.80
9425;DHT22;17139;52.140;11.636;2024-01-30T15:10:34;8.70;62.00
9425;DHT22;17139;52.140;11.636;2024-01-30T15:13:01;8.60;62.30
9425;DHT22;17139;52.140;11.636;2024-01-30T15:15:29;8.50;62.50
9425;DHT22;17139;52.140;11.636;2024-01-30T15:17:57;8.40;62.60
9425;DHT22;17139;52.140;11.636;2024-01-30T15:20:24;8.40;62.80
9425;DHT22;17139;52.140;11.636;2024-01-30T15:22:51;8.30;62.90
9425;DHT22;17139;52.140;11.636;2024-01-30T15:25:18;8.60;62.40
9425;DHT22;17139;52.140;11.636;2024-01-30T15:27:47;8.50;62.20
9425;DHT22;17139;52.140;11.636;2024-01-30T15:30:15;8.40;62.40
9425;DHT22;17139;52.140;11.636;2024-01-30T15:32:43;8.30;62.70
9425;DHT22;17139;52.140;11.636;2024-01-30T15:35:10;8.20;62.80
9425;DHT22;17139;52.140;11.636;2024-01-30T15:37:38;8.20;63.10
9425;DHT22;17139;52.140;11.636;2024-01-30T15:40:06;8.10;63.20
9425;DHT22;17139;52.140;11.636;2024-01-30T15:42:34;8.10;63.30
9425;DHT22;17139;52.140;11.636;2024-01-30T15:45:03;8.10;63.30
9425;DHT22;17139;52.140;11.636;2024-01-30T15:47:31;8.00;63.30
9425;DHT22;17139;52.140;11.636;2024-01-30T15:49:58;8.30;63.00